Aviation Digital Data Service (ADDS)

Output produced by METARs form (1736 UTC 22 May 2015)
found at http://aviationweather.gov/adds/metars/
 
KEWR 221720Z 2218/2324 28018G27KT P6SM BKN060 
     FM222200 32019G30KT P6SM BKN060 
     FM230200 33016G25KT P6SM SCT060 
     FM230800 34010KT P6SM SKC 
     FM231600 27010KT P6SM FEW250